Time;durP1;ratioP1;P1;durP2;ratioP2;P2;SDS_P1;SDS_P2;PMS_P1;PMS_P2;Temp;Humidity;BMP_temperature;BMP_pressure;BME280_temperature;BME280_humidity;BME280_pressure;Samples;Min_cycle;Max_cycle;Signal;HPM_P1;HPM_P2
2022/12/13 00:02:17;;;;;;;;;;;0.50;99.90;;;;;;5019628;28;20415;-74
2022/12/13 00:04:42;;;;;;;;;;;0.50;99.90;;;;;;5027163;28;20003;-74
2022/12/13 00:07:08;;;;;;;;;;;0.60;99.90;;;;;;5001936;28;19909;-74
2022/12/13 00:09:34;;;;;;;;;;;0.60;99.90;;;;;;5022574;28;19944;-74
2022/12/13 00:11:59;;;;;;;;;;;0.60;99.90;;;;;;5027981;28;19913;-72
2022/12/13 00:14:25;;;;;;;;;;;0.60;99.90;;;;;;5028334;28;19909;-74
2022/12/13 00:16:51;;;;;;;;;;;0.60;99.90;;;;;;5028765;28;19914;-73
2022/12/13 00:19:17;;;;;;;;;;;0.60;99.90;;;;;;5009028;28;19971;-74
2022/12/13 00:21:42;;;;;;;;;;;0.60;99.90;;;;;;5026735;28;20454;-75
2022/12/13 00:24:07;;;;;;;;;;;0.60;99.90;;;;;;5025504;28;19913;-74
2022/12/13 00:26:33;;;;;;;;;;;0.50;99.90;;;;;;5028549;28;20379;-75
2022/12/13 00:28:59;;;;;;;;;;;0.50;99.90;;;;;;5020875;28;19917;-72
2022/12/13 00:31:25;;;;;;;;;;;0.60;99.90;;;;;;5027185;28;20336;-73
2022/12/13 00:33:50;;;;;;;;;;;0.60;99.90;;;;;;5023026;28;19909;-73
2022/12/13 00:36:16;;;;;;;;;;;0.60;99.90;;;;;;5026261;28;20359;-73
2022/12/13 00:38:42;;;;;;;;;;;0.70;99.90;;;;;;5025022;28;20299;-73
2022/12/13 00:41:10;;;;;;;;;;;0.60;99.90;;;;;;5028438;28;19916;-74
2022/12/13 00:43:36;;;;;;;;;;;0.60;99.90;;;;;;5028903;28;19913;-75
2022/12/13 00:46:01;;;;;;;;;;;0.70;99.90;;;;;;5021794;28;19909;-73
2022/12/13 00:48:27;;;;;;;;;;;0.60;99.90;;;;;;5040953;28;19939;-75
2022/12/13 00:50:52;;;;;;;;;;;0.60;99.90;;;;;;5037477;28;19948;-76
2022/12/13 00:53:18;;;;;;;;;;;0.60;99.90;;;;;;5017974;28;19937;-74
2022/12/13 00:55:43;;;;;;;;;;;-1.10;99.90;;;;;;5027019;28;19909;-75
2022/12/13 00:58:09;;;;;;;;;;;-1.40;99.90;;;;;;5026401;28;19939;-74
2022/12/13 01:00:34;;;;;;;;;;;-1.30;99.90;;;;;;5021223;28;19921;-74
2022/12/13 01:03:19;;;;;;;;;;;-1.30;99.90;;;;;;5021972;28;20607;-72
2022/12/13 01:05:45;;;;;;;;;;;-1.40;99.90;;;;;;5023422;28;19917;-73
2022/12/13 01:08:11;;;;;;;;;;;-1.40;99.90;;;;;;5025851;28;19917;-75
2022/12/13 01:10:40;;;;;;;;;;;-1.40;99.90;;;;;;5016826;28;20486;-74
2022/12/13 01:13:06;;;;;;;;;;;-1.30;99.90;;;;;;5041954;28;19913;-73
2022/12/13 01:15:31;;;;;;;;;;;-1.40;99.90;;;;;;5039378;28;20190;-73
2022/12/13 01:17:57;;;;;;;;;;;-1.40;99.90;;;;;;5040203;28;19909;-75
2022/12/13 01:20:22;;;;;;;;;;;-1.50;99.90;;;;;;5043159;28;19909;-76
2022/12/13 01:22:47;;;;;;;;;;;-1.50;99.90;;;;;;5042790;28;20795;-73
2022/12/13 01:25:13;;;;;;;;;;;-1.50;99.90;;;;;;5043265;28;20161;-74
2022/12/13 01:27:38;;;;;;;;;;;-1.60;99.90;;;;;;5040349;28;19975;-73
2022/12/13 01:30:04;;;;;;;;;;;-1.60;99.90;;;;;;5037058;28;20399;-74
2022/12/13 01:32:30;;;;;;;;;;;-1.60;99.90;;;;;;5041737;28;19913;-74
2022/12/13 01:34:55;;;;;;;;;;;-1.60;99.90;;;;;;5033844;28;19960;-75
2022/12/13 01:37:20;;;;;;;;;;;-1.60;99.90;;;;;;5037573;28;19916;-75
2022/12/13 01:39:46;;;;;;;;;;;-1.70;99.90;;;;;;5024515;28;20036;-74
2022/12/13 01:42:12;;;;;;;;;;;-1.70;99.90;;;;;;5040989;28;19914;-76
2022/12/13 01:44:59;;;;;;;;;;;-1.70;99.90;;;;;;5041138;28;20411;-75
2022/12/13 01:47:29;;;;;;;;;;;-1.90;99.90;;;;;;5042032;28;19940;-75
2022/12/13 01:49:57;;;;;;;;;;;-1.90;99.90;;;;;;5017100;28;20271;-75
2022/12/13 01:52:22;;;;;;;;;;;-1.90;99.90;;;;;;5024265;28;19952;-75
2022/12/13 01:54:49;;;;;;;;;;;-1.70;99.90;;;;;;5028596;28;19956;-74
2022/12/13 01:57:16;;;;;;;;;;;-1.70;99.90;;;;;;5023111;28;19963;-73
2022/12/13 01:59:42;;;;;;;;;;;-1.60;99.90;;;;;;5028839;28;20008;-74
2022/12/13 02:02:09;;;;;;;;;;;-1.60;99.90;;;;;;5028719;28;19932;-76
2022/12/13 02:04:53;;;;;;;;;;;-1.60;99.90;;;;;;5028636;28;19913;-75
2022/12/13 02:07:20;;;;;;;;;;;-1.60;99.90;;;;;;5030913;28;20611;-75
2022/12/13 02:09:46;;;;;;;;;;;-1.70;99.90;;;;;;5029503;28;19910;-74
2022/12/13 02:12:12;;;;;;;;;;;-1.60;99.90;;;;;;5030068;28;19913;-74
2022/12/13 02:14:39;;;;;;;;;;;-1.60;99.90;;;;;;5025511;28;19992;-75
2022/12/13 02:17:09;;;;;;;;;;;-1.60;99.90;;;;;;5016154;28;19913;-73
2022/12/13 02:19:50;;;;;;;;;;;-1.60;99.90;;;;;;5028732;28;19909;-75
2022/12/13 02:22:31;;;;;;;;;;;-1.70;99.90;;;;;;5026908;28;19913;-74
2022/12/13 02:25:13;;;;;;;;;;;-1.70;99.90;;;;;;5024884;28;20597;-74
2022/12/13 02:27:38;;;;;;;;;;;-1.60;99.90;;;;;;5029605;28;19960;-75
2022/12/13 02:30:10;;;;;;;;;;;-1.60;99.90;;;;;;5022611;28;19967;-76
2022/12/13 02:32:54;;;;;;;;;;;-1.60;99.90;;;;;;5022297;28;19913;-74
2022/12/13 02:35:38;;;;;;;;;;;-1.60;99.90;;;;;;5024237;28;19913;-74
2022/12/13 02:38:07;;;;;;;;;;;-1.60;99.90;;;;;;5017522;28;20370;-74
2022/12/13 02:40:36;;;;;;;;;;;-1.60;99.90;;;;;;5026838;28;19909;-74
2022/12/13 02:43:21;;;;;;;;;;;-1.70;99.90;;;;;;5026583;28;19967;-72
2022/12/13 02:45:54;;;;;;;;;;;-1.60;99.90;;;;;;5028499;28;20275;-75
2022/12/13 02:48:22;;;;;;;;;;;-1.70;99.90;;;;;;5023798;28;19913;-75
2022/12/13 02:50:48;;;;;;;;;;;-1.70;99.90;;;;;;5021928;28;19917;-76
2022/12/13 02:53:14;;;;;;;;;;;-1.70;99.90;;;;;;5020868;28;19952;-75
2022/12/13 02:55:40;;;;;;;;;;;-1.60;99.90;;;;;;5027172;28;19964;-74
2022/12/13 02:58:06;;;;;;;;;;;-1.60;99.90;;;;;;5023387;28;19917;-75
2022/12/13 03:00:34;;;;;;;;;;;-1.70;99.90;;;;;;5028700;28;20113;-74
2022/12/13 03:03:12;;;;;;;;;;;-1.70;99.90;;;;;;5027497;28;20459;-74
2022/12/13 03:08:29;;;;;;;;;;;-1.70;99.90;;;;;;5024027;28;20283;-74
2022/12/13 03:11:02;;;;;;;;;;;-1.60;99.90;;;;;;5021890;28;19943;-73
2022/12/13 03:13:37;;;;;;;;;;;-1.60;99.90;;;;;;5025143;28;19916;-74
2022/12/13 03:16:26;;;;;;;;;;;-1.60;99.90;;;;;;5003915;28;19941;-74
2022/12/13 03:18:53;;;;;;;;;;;-1.70;99.90;;;;;;5025624;28;19910;-75
2022/12/13 03:21:19;;;;;;;;;;;-1.60;99.90;;;;;;5024915;28;20954;-75
2022/12/13 03:23:45;;;;;;;;;;;-1.70;99.90;;;;;;5007305;28;20021;-74
2022/12/13 03:26:13;;;;;;;;;;;-1.60;99.90;;;;;;5014948;28;20001;-73
2022/12/13 03:28:39;;;;;;;;;;;-1.70;99.90;;;;;;5024228;28;19909;-74
2022/12/13 03:31:05;;;;;;;;;;;-1.70;99.90;;;;;;5006829;28;19988;-74
2022/12/13 03:33:30;;;;;;;;;;;-1.70;99.90;;;;;;5018857;28;19920;-75
2022/12/13 03:35:56;;;;;;;;;;;-1.70;99.90;;;;;;5025979;28;19952;-74
2022/12/13 03:38:22;;;;;;;;;;;-1.80;99.90;;;;;;5019773;28;19909;-74
2022/12/13 03:40:48;;;;;;;;;;;-1.70;99.90;;;;;;5026616;28;19980;-74
2022/12/13 03:43:13;;;;;;;;;;;-1.70;99.90;;;;;;5018243;28;19964;-75
2022/12/13 03:45:39;;;;;;;;;;;-1.70;99.90;;;;;;5024615;28;19909;-76
2022/12/13 03:48:04;;;;;;;;;;;-1.70;99.90;;;;;;5023536;28;19996;-74
2022/12/13 03:50:30;;;;;;;;;;;-1.70;99.90;;;;;;5025990;28;19909;-74
2022/12/13 03:52:59;;;;;;;;;;;-1.80;99.90;;;;;;5006785;28;19920;-73
2022/12/13 03:55:25;;;;;;;;;;;-1.80;99.90;;;;;;5019294;28;19913;-75
2022/12/13 03:57:50;;;;;;;;;;;-1.80;99.90;;;;;;5019435;28;19917;-74
2022/12/13 04:00:16;;;;;;;;;;;-1.80;99.90;;;;;;5022392;28;20423;-74
2022/12/13 04:02:42;;;;;;;;;;;-1.80;99.90;;;;;;5024549;28;19920;-74
2022/12/13 04:05:07;;;;;;;;;;;-1.80;99.90;;;;;;5025599;28;19913;-74
2022/12/13 04:07:33;;;;;;;;;;;-1.70;99.90;;;;;;5024806;28;19920;-74
2022/12/13 04:09:58;;;;;;;;;;;-1.70;99.90;;;;;;5025938;28;19909;-73
2022/12/13 04:15:08;;;;;;;;;;;-1.90;99.90;;;;;;5024944;28;19924;-73
2022/12/13 04:17:33;;;;;;;;;;;-1.90;99.90;;;;;;5019803;28;19910;-75
2022/12/13 04:19:58;;;;;;;;;;;-1.90;99.90;;;;;;5024935;28;19963;-74
2022/12/13 04:22:24;;;;;;;;;;;-1.90;99.90;;;;;;5023751;28;19913;-75
2022/12/13 04:24:49;;;;;;;;;;;-1.80;99.90;;;;;;5026072;28;20135;-74
2022/12/13 04:27:15;;;;;;;;;;;-1.80;99.90;;;;;;5023216;28;19914;-75
2022/12/13 04:29:40;;;;;;;;;;;-1.80;99.90;;;;;;5024770;28;19917;-76
2022/12/13 04:32:06;;;;;;;;;;;-1.80;99.90;;;;;;5023112;28;20059;-74
2022/12/13 04:34:32;;;;;;;;;;;-1.90;99.90;;;;;;5025673;28;19910;-74
2022/12/13 04:36:58;;;;;;;;;;;-2.00;99.90;;;;;;5034180;28;19919;-74
2022/12/13 04:39:23;;;;;;;;;;;-2.00;99.90;;;;;;5035191;28;19913;-75
2022/12/13 04:41:50;;;;;;;;;;;-2.00;99.90;;;;;;5030496;28;20447;-74
2022/12/13 04:44:16;;;;;;;;;;;-1.90;99.90;;;;;;5030014;28;19920;-74
2022/12/13 04:46:41;;;;;;;;;;;-1.90;99.90;;;;;;5031497;28;19909;-75
2022/12/13 04:49:07;;;;;;;;;;;-2.00;99.90;;;;;;5028308;28;19909;-75
2022/12/13 04:51:32;;;;;;;;;;;-2.10;99.90;;;;;;5028209;28;19952;-75
2022/12/13 04:53:58;;;;;;;;;;;-2.10;99.90;;;;;;5030830;28;19943;-74
2022/12/13 04:56:24;;;;;;;;;;;-2.10;99.90;;;;;;5031322;28;19925;-75
2022/12/13 04:58:49;;;;;;;;;;;-2.10;99.90;;;;;;5029578;28;20188;-76
2022/12/13 05:01:15;;;;;;;;;;;-2.10;99.90;;;;;;5025662;28;19913;-75
2022/12/13 05:03:41;;;;;;;;;;;-2.10;99.90;;;;;;5026621;28;19962;-74
2022/12/13 05:06:08;;;;;;;;;;;-2.20;99.90;;;;;;5028021;28;19984;-75
2022/12/13 05:08:34;;;;;;;;;;;-2.30;99.90;;;;;;5026582;28;19909;-75
2022/12/13 05:11:00;;;;;;;;;;;-2.30;99.90;;;;;;5028744;28;19913;-74
2022/12/13 05:13:26;;;;;;;;;;;-2.20;99.90;;;;;;5029205;28;19915;-74
2022/12/13 05:15:56;;;;;;;;;;;-2.30;99.90;;;;;;5031174;28;19971;-75
2022/12/13 05:18:21;;;;;;;;;;;-2.30;99.90;;;;;;5008382;28;19959;-75
2022/12/13 05:20:47;;;;;;;;;;;-2.30;99.90;;;;;;5030355;28;20624;-75
2022/12/13 05:23:12;;;;;;;;;;;-2.30;99.90;;;;;;5028453;28;19915;-74
2022/12/13 05:25:38;;;;;;;;;;;-2.30;99.90;;;;;;5024245;28;20395;-75
2022/12/13 05:28:04;;;;;;;;;;;-2.20;99.90;;;;;;5022911;28;19913;-75
2022/12/13 05:30:29;;;;;;;;;;;-2.20;99.90;;;;;;5012066;28;19909;-76
2022/12/13 05:32:54;;;;;;;;;;;-2.10;99.90;;;;;;5011264;28;19910;-74
2022/12/13 05:35:20;;;;;;;;;;;-2.10;99.90;;;;;;5028458;28;20302;-75
2022/12/13 05:37:46;;;;;;;;;;;-2.10;99.90;;;;;;5022448;28;19910;-76
2022/12/13 05:40:11;;;;;;;;;;;-2.00;99.90;;;;;;5030982;28;19951;-75
2022/12/13 05:42:38;;;;;;;;;;;-2.00;99.90;;;;;;5030087;28;20390;-76
2022/12/13 05:45:05;;;;;;;;;;;-2.10;99.90;;;;;;5023233;28;19913;-75
2022/12/13 05:47:30;;;;;;;;;;;-2.10;99.90;;;;;;5023098;28;19917;-76
2022/12/13 05:49:56;;;;;;;;;;;-2.00;99.90;;;;;;5023224;28;19916;-73
2022/12/13 05:52:21;;;;;;;;;;;-1.90;99.90;;;;;;5007877;28;19917;-74
2022/12/13 05:54:47;;;;;;;;;;;-1.90;99.90;;;;;;5024717;28;19913;-77
2022/12/13 05:57:12;;;;;;;;;;;-2.10;99.90;;;;;;5025505;28;20276;-76
2022/12/13 05:59:38;;;;;;;;;;;-2.20;99.90;;;;;;5030905;28;19909;-76
2022/12/13 06:02:03;;;;;;;;;;;-2.30;99.90;;;;;;5030738;28;19913;-75
2022/12/13 06:04:29;;;;;;;;;;;-2.30;99.90;;;;;;5028821;28;19913;-74
2022/12/13 06:06:54;;;;;;;;;;;-2.40;99.90;;;;;;5010644;28;20411;-76
2022/12/13 06:09:20;;;;;;;;;;;-2.30;99.90;;;;;;5029102;28;19973;-76
2022/12/13 06:11:46;;;;;;;;;;;-2.40;99.90;;;;;;5033257;28;19964;-75
2022/12/13 06:14:12;;;;;;;;;;;-2.40;99.90;;;;;;5024193;28;19963;-76
2022/12/13 06:16:38;;;;;;;;;;;-2.40;99.90;;;;;;5029031;28;19918;-77
2022/12/13 06:19:03;;;;;;;;;;;-2.40;99.90;;;;;;5031753;28;19909;-76
2022/12/13 06:21:30;;;;;;;;;;;-2.30;99.90;;;;;;5033489;28;20643;-73
2022/12/13 06:23:55;;;;;;;;;;;-2.30;99.90;;;;;;5024007;28;19924;-75
2022/12/13 06:26:20;;;;;;;;;;;-2.40;99.90;;;;;;5038307;28;19984;-78
2022/12/13 06:28:46;;;;;;;;;;;-2.40;99.90;;;;;;5028863;28;19922;-74
2022/12/13 06:31:11;;;;;;;;;;;-2.40;99.90;;;;;;5021081;28;19913;-75
2022/12/13 06:33:37;;;;;;;;;;;-2.40;99.90;;;;;;5028421;28;19924;-75
2022/12/13 06:36:04;;;;;;;;;;;-2.40;99.90;;;;;;5021361;28;20548;-72
2022/12/13 06:38:30;;;;;;;;;;;-2.50;99.90;;;;;;5027927;28;20514;-74
2022/12/13 06:41:04;;;;;;;;;;;-2.50;99.90;;;;;;5024921;28;19973;-75
2022/12/13 06:43:30;;;;;;;;;;;-2.50;99.90;;;;;;5017614;28;20024;-76
2022/12/13 06:45:56;;;;;;;;;;;-2.50;99.90;;;;;;5010879;28;20008;-76
2022/12/13 06:48:21;;;;;;;;;;;-2.50;99.90;;;;;;5027471;28;19967;-78
2022/12/13 06:50:46;;;;;;;;;;;-2.50;99.90;;;;;;5028210;28;19909;-76
2022/12/13 06:53:12;;;;;;;;;;;-2.50;99.90;;;;;;5021825;28;19913;-77
2022/12/13 06:55:37;;;;;;;;;;;-2.60;99.90;;;;;;5025179;28;20153;-76
2022/12/13 06:58:03;;;;;;;;;;;-2.60;99.90;;;;;;5024512;28;19909;-76
2022/12/13 07:00:29;;;;;;;;;;;-2.60;99.90;;;;;;5019768;28;19924;-75
2022/12/13 07:02:54;;;;;;;;;;;-2.60;99.90;;;;;;5021996;28;19920;-75
2022/12/13 07:05:20;;;;;;;;;;;-2.50;99.90;;;;;;5009541;28;20015;-76
2022/12/13 07:07:45;;;;;;;;;;;-2.50;99.90;;;;;;5027404;28;20429;-76
2022/12/13 07:10:11;;;;;;;;;;;-2.50;99.90;;;;;;5027457;28;19913;-74
2022/12/13 07:12:36;;;;;;;;;;;-2.60;99.90;;;;;;5027958;28;19921;-78
2022/12/13 07:15:02;;;;;;;;;;;-2.60;99.90;;;;;;5025615;28;19925;-76
2022/12/13 07:17:28;;;;;;;;;;;-2.50;99.90;;;;;;5012688;28;19909;-77
2022/12/13 07:19:53;;;;;;;;;;;-2.60;99.90;;;;;;5025300;28;19909;-76
2022/12/13 07:22:19;;;;;;;;;;;-2.60;99.90;;;;;;5026028;28;19928;-76
2022/12/13 07:24:44;;;;;;;;;;;-2.60;99.90;;;;;;5037594;28;19939;-77
2022/12/13 07:27:10;;;;;;;;;;;-2.50;99.90;;;;;;5024414;28;19920;-76
2022/12/13 07:29:36;;;;;;;;;;;-2.50;99.90;;;;;;5037215;28;19944;-76
2022/12/13 07:32:01;;;;;;;;;;;-2.50;99.90;;;;;;5043432;28;19951;-75
2022/12/13 07:34:27;;;;;;;;;;;-2.40;99.90;;;;;;5029951;28;19909;-76
2022/12/13 07:36:52;;;;;;;;;;;-2.40;99.90;;;;;;5031314;28;19920;-76
2022/12/13 07:39:18;;;;;;;;;;;-2.40;99.90;;;;;;5033895;28;20184;-78
2022/12/13 07:41:43;;;;;;;;;;;-2.40;99.90;;;;;;5016625;28;20668;-77
2022/12/13 07:44:09;;;;;;;;;;;-2.40;99.90;;;;;;5044754;28;19913;-76
2022/12/13 07:46:34;;;;;;;;;;;-2.40;99.90;;;;;;5044412;28;19916;-76
2022/12/13 07:49:03;;;;;;;;;;;-2.40;99.90;;;;;;5030545;28;19905;-74
2022/12/13 07:51:29;;;;;;;;;;;-2.40;99.90;;;;;;5047242;28;19910;-76
2022/12/13 07:53:54;;;;;;;;;;;-2.40;99.90;;;;;;5043070;28;19996;-76
2022/12/13 07:56:20;;;;;;;;;;;-2.30;99.90;;;;;;5046707;28;19897;-77
2022/12/13 07:58:46;;;;;;;;;;;-2.30;99.90;;;;;;5047418;28;19920;-77
2022/12/13 08:01:11;;;;;;;;;;;-2.20;99.90;;;;;;5047051;28;19917;-77
2022/12/13 08:03:37;;;;;;;;;;;-2.20;99.90;;;;;;5045989;28;19913;-79
2022/12/13 08:06:02;;;;;;;;;;;-2.30;99.90;;;;;;5041750;28;19913;-75
2022/12/13 08:08:28;;;;;;;;;;;-2.30;99.90;;;;;;5037483;28;20342;-75
2022/12/13 08:10:53;;;;;;;;;;;-2.20;99.90;;;;;;5033337;28;19951;-78
2022/12/13 08:13:19;;;;;;;;;;;-2.20;99.90;;;;;;5016972;28;20273;-76
2022/12/13 08:15:44;;;;;;;;;;;-2.10;99.90;;;;;;5021822;28;19996;-75
2022/12/13 08:18:10;;;;;;;;;;;-2.10;99.90;;;;;;5025686;28;19971;-74
2022/12/13 08:20:36;;;;;;;;;;;-2.10;99.90;;;;;;5023745;28;19909;-77
2022/12/13 08:23:02;;;;;;;;;;;-2.10;99.90;;;;;;5020479;28;19924;-75
2022/12/13 08:25:28;;;;;;;;;;;-2.00;99.90;;;;;;5022660;28;19917;-74
2022/12/13 08:27:53;;;;;;;;;;;-2.00;99.90;;;;;;5019843;28;19909;-75
2022/12/13 08:30:19;;;;;;;;;;;-2.00;99.90;;;;;;5022266;28;20000;-76
2022/12/13 08:32:44;;;;;;;;;;;-1.90;99.90;;;;;;5021392;28;19931;-74
2022/12/13 08:35:10;;;;;;;;;;;-1.90;99.90;;;;;;5027268;28;20118;-75
2022/12/13 08:37:35;;;;;;;;;;;-1.90;99.90;;;;;;5026443;28;20382;-75
2022/12/13 08:40:02;;;;;;;;;;;-1.90;99.90;;;;;;5018210;28;19971;-75
2022/12/13 08:42:28;;;;;;;;;;;-1.80;99.90;;;;;;5017761;28;19919;-75
2022/12/13 08:44:53;;;;;;;;;;;-1.90;99.90;;;;;;5023483;28;19944;-76
2022/12/13 08:47:20;;;;;;;;;;;-1.80;99.90;;;;;;5025777;28;19910;-76
2022/12/13 08:49:46;;;;;;;;;;;-1.70;99.90;;;;;;5020083;28;19909;-74
2022/12/13 08:52:11;;;;;;;;;;;-1.60;99.90;;;;;;5024190;28;19909;-76
2022/12/13 08:54:36;;;;;;;;;;;-1.60;99.90;;;;;;5026408;28;19913;-75
2022/12/13 08:57:02;;;;;;;;;;;-1.70;99.90;;;;;;5015730;28;19909;-74
2022/12/13 08:59:28;;;;;;;;;;;-1.60;99.90;;;;;;5020960;28;19917;-76
2022/12/13 09:01:53;;;;;;;;;;;-1.60;99.90;;;;;;5014542;28;20095;-75
2022/12/13 09:04:19;;;;;;;;;;;-1.60;99.90;;;;;;5019070;28;19921;-74
2022/12/13 09:06:44;;;;;;;;;;;-1.70;99.90;;;;;;5021289;28;20397;-75
2022/12/13 09:09:10;;;;;;;;;;;-1.60;99.90;;;;;;5013875;28;19914;-75
2022/12/13 09:11:37;;;;;;;;;;;-1.60;99.90;;;;;;5019461;28;19913;-75
2022/12/13 09:14:03;;;;;;;;;;;-1.60;99.90;;;;;;5018478;28;19914;-76
2022/12/13 09:16:29;;;;;;;;;;;-1.50;99.90;;;;;;5020268;28;20338;-75
2022/12/13 09:18:54;;;;;;;;;;;-1.50;99.90;;;;;;5015678;28;19914;-76
2022/12/13 09:21:20;;;;;;;;;;;-1.50;99.90;;;;;;5017049;28;19939;-74
2022/12/13 09:23:45;;;;;;;;;;;-1.40;99.90;;;;;;5019842;28;19920;-75
2022/12/13 09:26:12;;;;;;;;;;;-1.40;99.90;;;;;;5019026;28;20363;-77
2022/12/13 09:28:38;;;;;;;;;;;-1.40;99.90;;;;;;5021787;28;20014;-74
2022/12/13 09:31:12;;;;;;;;;;;-1.40;99.90;;;;;;5015946;28;19910;-75
2022/12/13 09:33:37;;;;;;;;;;;-1.20;99.90;;;;;;5022490;28;20045;-75
2022/12/13 09:36:07;;;;;;;;;;;-1.10;99.90;;;;;;5017160;28;20443;-75
2022/12/13 09:38:33;;;;;;;;;;;-1.10;99.90;;;;;;5021286;28;19924;-74
2022/12/13 09:40:59;;;;;;;;;;;-0.90;99.90;;;;;;5023612;28;19936;-74
2022/12/13 09:43:30;;;;;;;;;;;-0.80;99.90;;;;;;5021639;28;19916;-75
2022/12/13 09:45:55;;;;;;;;;;;-0.70;99.90;;;;;;5009645;28;20319;-74
2022/12/13 09:48:22;;;;;;;;;;;-0.70;99.90;;;;;;5028613;28;19913;-74
2022/12/13 09:50:47;;;;;;;;;;;-0.70;99.90;;;;;;5029088;28;19913;-74
2022/12/13 09:53:14;;;;;;;;;;;-0.60;99.90;;;;;;5025595;28;19909;-76
2022/12/13 09:55:44;;;;;;;;;;;-0.60;99.90;;;;;;5030312;28;20346;-75
2022/12/13 09:58:30;;;;;;;;;;;-0.70;99.90;;;;;;5029897;28;20559;-75
2022/12/13 10:00:56;;;;;;;;;;;-0.60;99.90;;;;;;5011213;28;19910;-75
2022/12/13 10:03:23;;;;;;;;;;;-0.60;99.90;;;;;;5029241;28;19932;-75
2022/12/13 10:05:58;;;;;;;;;;;-0.50;99.90;;;;;;5031369;28;19919;-74
2022/12/13 10:08:30;;;;;;;;;;;-0.50;99.90;;;;;;5029934;28;19921;-74
2022/12/13 10:10:56;;;;;;;;;;;-0.50;99.90;;;;;;5032453;28;19920;-75
2022/12/13 10:13:30;;;;;;;;;;;-0.60;99.90;;;;;;5024573;28;19913;-75
2022/12/13 10:15:57;;;;;;;;;;;-0.60;99.90;;;;;;5021653;28;19985;-75
2022/12/13 10:18:43;;;;;;;;;;;-0.70;99.90;;;;;;5038431;28;19921;-74
2022/12/13 10:21:11;;;;;;;;;;;-0.70;99.90;;;;;;5043575;28;19909;-74
2022/12/13 10:23:37;;;;;;;;;;;-0.70;99.90;;;;;;5044631;28;19936;-74
2022/12/13 10:26:07;;;;;;;;;;;-0.70;99.90;;;;;;5042625;28;19909;-73
2022/12/13 10:28:32;;;;;;;;;;;-0.70;99.90;;;;;;5041981;28;19936;-74
2022/12/13 10:30:59;;;;;;;;;;;-0.60;99.90;;;;;;5026989;28;19965;-74
2022/12/13 10:33:27;;;;;;;;;;;-0.60;99.90;;;;;;5025335;28;19913;-75
2022/12/13 10:36:05;;;;;;;;;;;-0.60;99.90;;;;;;5040756;28;19924;-75
2022/12/13 10:38:34;;;;;;;;;;;-0.60;99.90;;;;;;5039290;28;20299;-73
2022/12/13 10:40:59;;;;;;;;;;;-0.50;99.90;;;;;;5041366;28;19946;-74
2022/12/13 10:43:26;;;;;;;;;;;-0.50;99.90;;;;;;5038774;28;19924;-74
2022/12/13 10:45:54;;;;;;;;;;;-0.40;99.90;;;;;;5035051;28;20043;-74
2022/12/13 10:48:21;;;;;;;;;;;-0.50;99.90;;;;;;5044635;28;19928;-74
2022/12/13 10:50:57;;;;;;;;;;;-0.40;99.90;;;;;;5055993;28;19964;-75
2022/12/13 10:53:27;;;;;;;;;;;-0.40;99.90;;;;;;5043646;28;19909;-74
2022/12/13 10:55:54;;;;;;;;;;;-0.30;99.90;;;;;;5054936;28;19909;-75
2022/12/13 10:58:19;;;;;;;;;;;-0.10;99.90;;;;;;5046996;28;19913;-75
2022/12/13 11:00:46;;;;;;;;;;;0.00;99.90;;;;;;5048814;28;19960;-75
2022/12/13 11:03:26;;;;;;;;;;;0.00;99.90;;;;;;5050471;28;19920;-75
2022/12/13 11:06:01;;;;;;;;;;;-0.20;99.90;;;;;;5047643;28;19921;-74
2022/12/13 11:08:27;;;;;;;;;;;-0.20;99.90;;;;;;5054198;28;19921;-73
2022/12/13 11:10:56;;;;;;;;;;;-0.30;99.90;;;;;;5048796;28;19980;-74
2022/12/13 11:13:42;;;;;;;;;;;-0.20;99.90;;;;;;5042221;28;19909;-74
2022/12/13 11:16:23;;;;;;;;;;;-0.20;99.90;;;;;;5036274;28;19917;-75
2022/12/13 11:18:56;;;;;;;;;;;-0.20;99.90;;;;;;5028263;28;19921;-73
2022/12/13 11:21:32;;;;;;;;;;;0.00;99.90;;;;;;5025736;28;19917;-74
2022/12/13 11:24:00;;;;;;;;;;;0.20;99.90;;;;;;5026285;28;20018;-75
2022/12/13 11:26:27;;;;;;;;;;;0.30;99.90;;;;;;5027177;28;19916;-74
2022/12/13 11:28:59;;;;;;;;;;;0.40;99.90;;;;;;5024536;28;19909;-73
2022/12/13 11:31:27;;;;;;;;;;;0.40;99.90;;;;;;5025840;28;19920;-74
2022/12/13 11:33:53;;;;;;;;;;;0.70;99.90;;;;;;5021446;28;19961;-73
2022/12/13 11:36:26;;;;;;;;;;;0.50;99.90;;;;;;5010590;28;19920;-74
2022/12/13 11:38:51;;;;;;;;;;;0.60;99.90;;;;;;5025275;28;19913;-73
2022/12/13 11:41:21;;;;;;;;;;;0.90;99.90;;;;;;5022746;28;19917;-73
2022/12/13 11:43:54;;;;;;;;;;;0.70;99.90;;;;;;5027645;28;20002;-74
2022/12/13 11:46:25;;;;;;;;;;;0.60;99.90;;;;;;5006647;28;19913;-73
2022/12/13 11:49:03;;;;;;;;;;;0.60;99.90;;;;;;5019814;28;19925;-72
2022/12/13 11:51:54;;;;;;;;;;;0.90;99.90;;;;;;5028621;28;20553;-73
2022/12/13 11:54:46;;;;;;;;;;;0.90;99.90;;;;;;5014881;28;19955;-73
2022/12/13 11:57:29;;;;;;;;;;;0.90;99.90;;;;;;5022046;28;19952;-73
2022/12/13 12:00:09;;;;;;;;;;;1.00;99.90;;;;;;5020506;28;20276;-72
2022/12/13 12:02:37;;;;;;;;;;;1.40;99.90;;;;;;5019965;28;19921;-73
2022/12/13 12:05:13;;;;;;;;;;;1.40;99.90;;;;;;5019446;28;20334;-73
2022/12/13 12:07:42;;;;;;;;;;;1.50;99.90;;;;;;5014045;28;19956;-72
2022/12/13 12:10:29;;;;;;;;;;;1.20;99.90;;;;;;5017990;28;19913;-74
2022/12/13 12:13:00;;;;;;;;;;;1.00;99.90;;;;;;5011260;28;19916;-72
2022/12/13 12:15:28;;;;;;;;;;;1.20;99.90;;;;;;5022020;28;20443;-72
2022/12/13 12:17:54;;;;;;;;;;;1.10;99.90;;;;;;5021431;28;19909;-74
2022/12/13 12:20:46;;;;;;;;;;;0.80;99.90;;;;;;5021545;28;19917;-74
2022/12/13 12:23:18;;;;;;;;;;;0.70;99.90;;;;;;4971206;28;20064;-74
2022/12/13 12:25:46;;;;;;;;;;;0.90;99.90;;;;;;5001813;28;19978;-74
2022/12/13 12:28:17;;;;;;;;;;;0.70;99.90;;;;;;5023864;28;19982;-74
2022/12/13 12:30:50;;;;;;;;;;;0.50;99.90;;;;;;5021351;28;20140;-73
2022/12/13 12:33:22;;;;;;;;;;;0.40;99.90;;;;;;5022918;28;19945;-74
2022/12/13 12:36:16;;;;;;;;;;;0.60;99.90;;;;;;5021406;28;20474;-72
2022/12/13 12:39:01;;;;;;;;;;;0.70;99.90;;;;;;4933473;28;19915;-73
2022/12/13 12:41:34;;;;;;;;;;;0.40;99.90;;;;;;5023359;28;19910;-73
2022/12/13 12:44:11;;;;;;;;;;;0.40;99.90;;;;;;5007714;28;19933;-73
2022/12/13 12:46:41;;;;;;;;;;;0.30;99.90;;;;;;5015572;28;19917;-72
2022/12/13 12:49:22;;;;;;;;;;;0.40;99.90;;;;;;5013821;28;19916;-73
2022/12/13 12:51:54;;;;;;;;;;;0.20;99.90;;;;;;5020099;28;20004;-73
2022/12/13 12:54:37;;;;;;;;;;;0.10;99.90;;;;;;5020783;28;19913;-73
2022/12/13 12:57:17;;;;;;;;;;;0.10;99.90;;;;;;5019261;28;19913;-74
2022/12/13 13:00:02;;;;;;;;;;;0.10;99.90;;;;;;5021156;28;19921;-74
2022/12/13 13:02:35;;;;;;;;;;;0.10;99.90;;;;;;5018271;28;19913;-73
2022/12/13 13:05:07;;;;;;;;;;;0.20;99.90;;;;;;5024431;28;19949;-73
2022/12/13 13:07:35;;;;;;;;;;;0.10;99.90;;;;;;5023554;28;19914;-74
2022/12/13 13:10:02;;;;;;;;;;;0.20;99.90;;;;;;5019611;28;19909;-74
2022/12/13 13:12:28;;;;;;;;;;;0.10;99.90;;;;;;5021060;28;20000;-74
2022/12/13 13:14:53;;;;;;;;;;;0.00;99.90;;;;;;5023783;28;19996;-73
2022/12/13 13:17:22;;;;;;;;;;;0.20;99.90;;;;;;5016811;28;19975;-74
2022/12/13 13:20:09;;;;;;;;;;;0.20;99.90;;;;;;5021042;28;19914;-74
2022/12/13 13:22:35;;;;;;;;;;;0.00;99.90;;;;;;5005623;28;20004;-74
2022/12/13 13:25:10;;;;;;;;;;;0.10;99.90;;;;;;5020798;28;19956;-74
2022/12/13 13:27:40;;;;;;;;;;;0.20;99.90;;;;;;5028385;28;20029;-73
2022/12/13 13:30:18;;;;;;;;;;;0.30;99.90;;;;;;5020465;28;20420;-75
2022/12/13 13:32:44;;;;;;;;;;;0.00;99.90;;;;;;5026260;28;19913;-74
2022/12/13 13:35:36;;;;;;;;;;;0.00;99.90;;;;;;5020093;28;19996;-74
2022/12/13 13:38:17;;;;;;;;;;;0.00;99.90;;;;;;5008661;28;19944;-74
2022/12/13 13:40:42;;;;;;;;;;;-0.10;99.90;;;;;;5029359;28;19924;-72
2022/12/13 13:43:08;;;;;;;;;;;-0.10;99.90;;;;;;5022015;28;19936;-73
2022/12/13 13:45:49;;;;;;;;;;;-0.20;99.90;;;;;;5029173;28;19913;-75
2022/12/13 13:48:17;;;;;;;;;;;-0.20;99.90;;;;;;5022976;28;19975;-72
2022/12/13 13:51:05;;;;;;;;;;;-0.20;99.90;;;;;;5024872;28;19924;-75
2022/12/13 13:53:30;;;;;;;;;;;-0.20;99.90;;;;;;5021138;28;20608;-73
2022/12/13 13:56:10;;;;;;;;;;;-0.30;99.90;;;;;;5028702;28;20002;-73
2022/12/13 13:59:00;;;;;;;;;;;-0.30;99.90;;;;;;5027960;28;19937;-74
2022/12/13 14:01:44;;;;;;;;;;;-0.30;99.90;;;;;;5028846;28;19909;-73
2022/12/13 14:04:26;;;;;;;;;;;-0.30;99.90;;;;;;5021003;28;20395;-73
2022/12/13 14:07:00;;;;;;;;;;;-0.30;99.90;;;;;;5022697;28;20268;-73
2022/12/13 14:09:25;;;;;;;;;;;-0.30;99.90;;;;;;5022647;28;20082;-74
2022/12/13 14:12:06;;;;;;;;;;;-0.30;99.90;;;;;;5026750;28;19917;-74
2022/12/13 14:14:50;;;;;;;;;;;-0.10;99.90;;;;;;5022512;28;19931;-73
2022/12/13 14:17:22;;;;;;;;;;;-0.10;99.90;;;;;;5028426;28;20368;-73
2022/12/13 14:19:53;;;;;;;;;;;-0.10;99.90;;;;;;5014840;28;20272;-74
2022/12/13 14:22:23;;;;;;;;;;;-0.20;99.90;;;;;;5016259;28;20036;-74
2022/12/13 14:25:00;;;;;;;;;;;-0.20;99.90;;;;;;5021317;28;20023;-74
2022/12/13 14:27:46;;;;;;;;;;;-0.30;99.90;;;;;;5024938;28;20037;-74
2022/12/13 14:30:14;;;;;;;;;;;-0.20;99.90;;;;;;5006110;28;19960;-74
2022/12/13 14:32:40;;;;;;;;;;;-0.30;99.90;;;;;;5010127;28;20346;-74
2022/12/13 14:35:06;;;;;;;;;;;-0.30;99.90;;;;;;5021078;28;19959;-75
2022/12/13 14:37:33;;;;;;;;;;;-0.30;99.90;;;;;;5015619;28;19957;-75